Latest Weather Observations for Amberley

IDQ60801

Issued at 3:32 pm EST Sunday 23 April 2017 (issued every 30 minutes, with the page automatically refreshed every 10 minutes)

About weather observations | Map of weather stations | Latest weather observations for QLD | Other Formats
Station Details ID: 040004 Name: AMBERLEY AMO Lat: -27.63 Lon: 152.71 Height: 24.2 m
Data from the previous 72 hours. | See also: Recent months at Amberley
Date/Time
EST
Temp
°C
App
Temp
°C
Dew
Point
°C
Rel
Hum
%
Delta-T
°C
Wind Press
QNH
hPa
Press
MSL
hPa
Rain since
9am
mm
Dir  Spd
km/h
Gust
km/h
Spd
kts
Gust
kts
23/03:30pm 24.3 23.7 14.5 54 5.8 E 11 15 6 8 1019.3 1019.2 0.0
23/03:00pm 26.2 25.8 14.1 47 7.2 E 9 22 5 12 1019.1 1019.0 0.0
23/02:30pm 25.6 23.9 13.7 47 7.0 ENE 15 20 8 11 1019.3 1019.2 0.0
23/02:00pm 25.9 26.3 13.7 47 7.2 ESE 4 15 2 8 1019.6 1019.5 0.0
23/01:30pm 25.2 24.8 14.2 50 6.5 E 9 15 5 8 1019.9 1019.8 0.0
23/01:00pm 25.0 25.8 13.7 49 6.6 ENE 2 7 1 4 1020.1 1020.0 0.0
23/12:30pm 25.5 25.3 14.8 51 6.4 E 9 15 5 8 1020.6 1020.5 0.0
23/12:00pm 23.9 22.8 14.4 55 5.6 ENE 13 19 7 10 1021.0 1020.9 0.0
23/11:30am 24.1 22.5 14.0 53 5.9 NE 15 20 8 11 1021.4 1021.3 0.0
23/11:00am 24.2 23.7 14.8 55 5.6 NE 11 19 6 10 1021.8 1021.7 0.0
23/10:30am 22.9 22.2 14.4 58 5.0 ENE 11 17 6 9 1022.5 1022.4 0.0
23/10:00am 22.6 22.8 14.2 59 4.9 SE 6 13 3 7 1022.9 1022.8 0.0
23/09:30am 21.2 21.1 13.9 63 4.2 SSE 7 11 4 6 1023.1 1023.0 0.0
23/09:00am 19.6 18.6 13.4 67 3.5 SSW 11 15 6 8 1023.4 1023.3 0.0
23/08:30am 18.0 17.4 13.6 75 2.5 SW 9 13 5 7 1023.5 1023.4 0.0
23/08:00am 15.9 17.1 13.8 87 1.2 CALM 0 7 0 4 1023.3 1023.2 0.0
23/07:30am 14.4 15.4 13.3 93 0.6 CALM 0 2 0 1 1023.1 1023.0 0.0
23/07:00am 12.5 13.2 12.1 97 0.2 CALM 0 4 0 2 1022.9 1022.8 0.0
23/06:30am 11.4 11.7 11.0 97 0.2 CALM 0 0 0 0 1022.7 1022.6 0.0
23/06:00am 11.4 11.8 11.2 99 0.1 CALM 0 0 0 0 1022.5 1022.4 0.0
23/05:30am 11.5 10.5 10.9 96 0.3 NW 7 9 4 5 1022.1 1022.0 0.0
23/05:00am 11.8 10.2 11.4 97 0.2 NW 11 11 6 6 1021.8 1021.7 0.0
23/04:46am 11.5 10.1 10.9 96 0.3 NW 9 11 5 6 1021.8 1021.7 0.0
23/04:30am 11.3 11.6 10.9 97 0.2 CALM 0 0 0 0 1021.7 1021.6 0.0
23/04:00am 12.0 12.5 11.6 97 0.2 CALM 0 0 0 0 1021.7 1021.6 0.0
23/03:59am 11.9 12.4 11.7 99 0.1 CALM 0 0 0 0 1021.7 1021.6 0.0
23/03:30am 12.9 13.7 12.5 97 0.2 CALM 0 0 0 0 1021.6 1021.5 0.0
23/03:00am 13.2 14.0 12.6 96 0.3 CALM 0 0 0 0 1021.6 1021.5 0.0
23/02:30am 13.0 13.8 12.4 96 0.3 CALM 0 0 0 0 1021.7 1021.6 0.0
23/02:00am 13.1 13.9 12.4 95 0.4 CALM 0 0 0 0 1021.8 1021.7 0.0
23/01:30am 13.3 14.1 12.6 95 0.4 CALM 0 0 0 0 1022.1 1022.0 0.0
23/01:00am 13.6 14.5 12.9 95 0.4 CALM 0 0 0 0 1022.5 1022.4 0.0
23/12:30am 13.9 14.9 13.2 96 0.4 CALM 0 0 0 0 1023.0 1022.9 0.0
23/12:00am 13.8 14.7 12.9 94 0.5 CALM 0 0 0 0 1023.2 1023.1 0.0
 
Date/Time
EST
Temp
°C
App
Temp
°C
Dew
Point
°C
Rel
Hum
%
Delta-T
°C
Wind Press
QNH
hPa
Press
MSL
hPa
Rain since
9am
mm
Dir  Spd
km/h
Gust
km/h
Spd
kts
Gust
kts
22/11:30pm 14.5 15.6 13.4 93 0.6 CALM 0 0 0 0 1023.5 1023.4 0.0
22/11:00pm 14.8 15.9 13.5 92 0.7 CALM 0 0 0 0 1023.7 1023.6 0.0
22/10:30pm 14.9 16.0 13.6 92 0.7 CALM 0 0 0 0 1023.8 1023.7 0.0
22/10:00pm 15.1 16.2 13.5 90 0.9 CALM 0 0 0 0 1023.9 1023.8 0.0
22/09:30pm 16.4 17.5 13.5 83 1.6 CALM 0 0 0 0 1024.0 1023.9 0.0
22/09:00pm 16.5 17.8 14.2 86 1.3 CALM 0 0 0 0 1024.0 1023.9 0.0
22/08:30pm 17.8 18.1 13.4 75 2.5 E 4 6 2 3 1023.9 1023.8 0.0
22/08:00pm 18.4 19.5 13.6 73 2.7 CALM 0 0 0 0 1023.7 1023.6 0.0
22/07:30pm 19.1 19.5 13.8 71 3.0 E 4 6 2 3 1023.5 1023.4 0.0
22/07:00pm 20.1 19.4 13.2 64 3.9 E 9 11 5 6 1023.1 1023.0 0.0
22/06:30pm 20.6 20.1 13.8 65 3.9 E 9 11 5 6 1022.7 1022.6 0.0
22/06:00pm 21.2 20.1 12.1 56 5.1 E 9 13 5 7 1022.5 1022.4 0.0
22/05:30pm 20.9 20.3 13.6 63 4.2 E 9 11 5 6 1022.3 1022.2 0.0
22/05:00pm 21.7 20.4 12.5 56 5.2 ESE 11 15 6 8 1022.2 1022.1 0.0
22/04:30pm 22.4 20.3 12.3 52 5.7 ESE 15 20 8 11 1021.9 1021.8 0.0
22/04:00pm 22.7 20.2 12.3 52 5.9 E 17 26 9 14 1021.7 1021.6 0.0
22/03:30pm 22.8 20.4 12.6 52 5.8 ESE 17 22 9 12 1021.5 1021.4 0.0
22/03:00pm 23.1 20.5 12.1 50 6.2 ESE 17 20 9 11 1021.4 1021.3 0.0
22/02:30pm 23.3 20.5 12.6 51 6.1 E 19 26 10 14 1021.3 1021.2 0.0
22/02:00pm 23.8 21.0 12.6 49 6.4 ESE 19 26 10 14 1021.3 1021.2 0.0
22/01:30pm 24.1 21.3 13.2 50 6.3 ESE 20 26 11 14 1021.6 1021.5 0.0
22/01:00pm 23.1 20.2 13.0 53 5.8 ESE 20 26 11 14 1022.0 1021.9 0.0
22/12:30pm 22.9 21.0 14.2 58 5.1 ESE 17 24 9 13 1022.4 1022.3 0.0
22/12:00pm 22.5 20.1 13.7 57 5.1 SE 19 26 10 14 1022.8 1022.7 0.0
22/11:30am 23.0 21.9 14.3 58 5.1 SE 13 17 7 9 1023.3 1023.2 0.0
22/11:00am 22.0 20.6 14.5 62 4.4 ESE 15 22 8 12 1023.9 1023.8 0.0
22/10:30am 22.8 23.1 16.0 65 4.1 E 9 17 5 9 1024.3 1024.2 0.0
22/10:00am 21.5 23.3 16.5 73 3.0 SSE 2 7 1 4 1024.7 1024.6 0.0
22/09:30am 20.9 23.3 17.1 79 2.3 CALM 0 0 0 0 1024.9 1024.8 0.0
22/09:00am 19.6 20.8 16.8 84 1.7 SW 6 11 3 6 1024.9 1024.8 3.6
22/08:30am 18.4 20.6 16.4 88 1.2 CALM 0 7 0 4 1024.8 1024.7 3.6
22/08:00am 17.9 19.5 16.0 89 1.1 SW 2 9 1 5 1024.7 1024.6 3.6
22/07:30am 17.6 18.4 16.4 93 0.7 SW 7 9 4 5 1024.5 1024.4 3.6
22/07:00am 17.4 19.1 16.2 93 0.7 SW 2 7 1 4 1024.3 1024.2 3.6
22/06:30am 17.2 18.1 16.2 94 0.6 SW 6 9 3 5 1023.9 1023.8 3.6
22/06:00am 17.1 17.8 16.1 94 0.6 SW 7 9 4 5 1023.7 1023.6 3.6
22/05:30am 17.1 17.4 16.1 94 0.6 SW 9 11 5 6 1023.4 1023.3 3.6
22/05:00am 17.0 17.7 16.2 95 0.5 SW 7 9 4 5 1023.2 1023.1 3.6
22/04:36am 16.9 17.6 16.1 95 0.5 SW 7 9 4 5 1023.0 1022.9 3.6
22/04:30am 16.8 17.1 16.1 96 0.4 SW 9 13 5 7 1022.9 1022.8 3.6
22/04:07am 16.9 17.2 15.9 94 0.6 S 9 13 5 7 1022.9 1022.8 3.2
22/04:00am 17.0 17.2 15.8 93 0.7 SSW 9 15 5 8 1022.8 1022.7 2.6
22/03:30am 16.8 16.6 15.8 94 0.6 SSW 11 15 6 8 1022.6 1022.5 2.6
22/03:00am 16.7 16.9 15.8 94 0.5 SSW 9 13 5 7 1022.9 1022.8 2.6
22/02:30am 16.7 16.1 15.7 94 0.6 SSW 13 15 7 8 1023.0 1022.9 2.6
22/02:00am 16.7 16.2 15.8 94 0.5 SSW 13 17 7 9 1023.2 1023.1 2.6
22/01:55am 16.7 16.2 16.0 96 0.4 SSW 13 15 7 8 1023.2 1023.1 2.4
22/01:34am 16.8 16.7 15.9 94 0.5 SSW 11 15 6 8 1023.6 1023.5 2.0
22/01:30am 16.7 16.9 15.8 94 0.5 S 9 15 5 8 1023.6 1023.5 2.0
22/01:24am 16.7 16.9 15.7 94 0.6 ESE 9 13 5 7 1023.8 1023.7 2.0
22/01:15am 17.0 17.2 15.8 93 0.7 SE 9 11 5 6 1024.0 1023.9 1.4
22/01:00am 17.2 16.9 15.5 90 1.0 SW 11 13 6 7 1023.5 1023.4 0.8
22/12:53am 17.1 16.8 15.4 90 1.0 SW 11 15 6 8 1023.7 1023.6 0.8
22/12:31am 17.0 18.7 15.1 88 1.1 CALM 0 0 0 0 1023.9 1023.8 0.2
22/12:30am 17.0 18.7 15.1 88 1.1 CALM 0 6 0 3 1024.0 1023.9 0.2
22/12:00am 17.0 18.8 15.5 91 0.9 CALM 0 9 0 5 1024.0 1023.9 0.0
 
Date/Time
EST
Temp
°C
App
Temp
°C
Dew
Point
°C
Rel
Hum
%
Delta-T
°C
Wind Press
QNH
hPa
Press
MSL
hPa
Rain since
9am
mm
Dir  Spd
km/h
Gust
km/h
Spd
kts
Gust
kts
21/11:30pm 16.9 18.1 15.0 88 1.1 SSW 2 7 1 4 1024.3 1024.2 0.0
21/11:00pm 16.7 18.0 15.1 90 0.9 S 2 7 1 4 1024.3 1024.2 0.0
21/10:30pm 16.1 16.7 14.3 89 1.0 SSW 4 9 2 5 1024.5 1024.4 0.0
21/10:00pm 15.0 16.1 13.6 91 0.8 CALM 0 0 0 0 1024.6 1024.5 0.0
21/09:30pm 15.2 14.9 13.4 89 1.0 SW 7 11 4 6 1024.4 1024.3 0.0
21/09:00pm 15.7 16.8 13.4 86 1.3 CALM 0 2 0 1 1024.4 1024.3 0.0
21/08:30pm 16.4 17.6 13.9 85 1.4 CALM 0 0 0 0 1024.7 1024.6 0.0
21/08:00pm 17.4 18.6 13.7 79 2.1 CALM 0 4 0 2 1024.5 1024.4 0.0
21/07:30pm 18.5 18.4 13.4 72 2.9 SSE 6 7 3 4 1024.3 1024.2 0.0
21/07:00pm 19.1 18.8 13.3 69 3.3 SSE 7 11 4 6 1024.1 1024.0 0.0
21/06:30pm 19.0 18.6 14.1 73 2.8 ESE 9 13 5 7 1023.7 1023.6 0.0
21/06:00pm 20.1 19.4 14.2 69 3.4 ESE 11 15 6 8 1023.7 1023.6 0.0
21/05:30pm 20.9 20.6 14.4 66 3.8 ESE 9 19 5 10 1023.4 1023.3 0.0
21/05:00pm 21.6 22.3 14.6 64 4.1 SE 4 7 2 4 1022.9 1022.8 0.0
21/04:30pm 22.0 21.7 14.5 62 4.4 E 9 13 5 7 1022.7 1022.6 0.0
21/04:00pm 22.2 20.7 14.3 61 4.6 E 15 19 8 10 1022.6 1022.5 0.0
21/03:30pm 22.3 19.8 14.1 59 4.8 E 20 32 11 17 1022.6 1022.5 0.0
21/03:00pm 22.5 18.6 15.5 64 4.2 ENE 30 39 16 21 1022.5 1022.4 0.0
21/02:30pm 24.8 21.8 14.9 54 5.9 ESE 24 37 13 20 1022.5 1022.4 0.0
21/02:00pm 23.8 21.0 13.2 51 6.1 ESE 20 32 11 17 1022.6 1022.5 0.0
21/01:30pm 24.1 21.1 13.8 52 6.0 ESE 22 32 12 17 1022.6 1022.5 0.0
21/01:00pm 24.6 21.9 13.6 50 6.4 ESE 20 32 11 17 1022.9 1022.8 0.0
21/12:30pm 25.3 22.8 13.5 48 6.9 SE 19 26 10 14 1023.4 1023.3 0.0
21/12:00pm 25.6 22.9 13.0 45 7.3 ESE 19 26 10 14 1023.8 1023.7 0.0
21/11:30am 24.0 20.4 13.1 50 6.3 SE 24 32 13 17 1024.4 1024.3 0.0
21/11:00am 23.8 21.0 12.6 49 6.4 SE 19 28 10 15 1024.9 1024.8 0.0
21/10:30am 23.6 21.4 13.4 52 5.9 ESE 17 24 9 13 1025.3 1025.2 0.0
21/10:00am 23.6 21.1 14.0 55 5.6 SE 20 26 11 14 1025.6 1025.5 0.0
21/09:30am 21.7 22.0 14.9 65 4.0 SW 7 11 4 6 1025.7 1025.6 0.0
21/09:00am 19.5 19.9 14.7 74 2.8 SSW 6 9 3 5 1025.9 1025.8 0.0
21/08:30am 17.7 19.2 14.7 82 1.7 CALM 0 7 0 4 1025.8 1025.7 0.0
21/08:00am 17.1 18.6 14.7 86 1.4 CALM 0 0 0 0 1025.7 1025.6 0.0
21/07:30am 14.9 16.2 14.0 94 0.5 CALM 0 0 0 0 1025.5 1025.4 0.0
21/07:00am 13.0 13.7 12.3 95 0.4 CALM 0 0 0 0 1025.2 1025.1 0.0
21/06:30am 11.1 10.0 10.5 96 0.3 S 7 7 4 4 1025.0 1024.9 0.0
21/06:00am 11.1 10.0 10.5 96 0.3 S 7 9 4 5 1024.6 1024.5 0.0
21/05:31am 11.1 11.3 10.7 97 0.2 CALM 0 0 0 0 1024.1 1024.0 0.0
21/05:30am 11.1 11.3 10.7 97 0.2 CALM 0 0 0 0 1024.1 1024.0 0.0
21/05:00am 11.1 10.2 10.7 97 0.2 S 6 9 3 5 1023.8 1023.7 0.0
21/04:41am 11.2 11.5 10.8 97 0.2 CALM 0 0 0 0 1023.7 1023.6 0.0
21/04:30am 12.1 12.6 11.7 97 0.2 CALM 0 0 0 0 1023.5 1023.4 0.0
21/04:00am 11.0 11.2 10.4 96 0.3 CALM 0 6 0 3 1023.6 1023.5 0.0
21/03:30am 12.9 12.4 12.2 95 0.4 SSW 6 9 3 5 1023.6 1023.5 0.0
21/03:00am 12.7 13.4 12.1 96 0.3 CALM 0 0 0 0 1023.8 1023.7 0.0
21/02:30am 12.5 13.2 12.1 97 0.2 CALM 0 0 0 0 1024.1 1024.0 0.0
21/02:00am 12.5 13.1 11.9 96 0.3 CALM 0 0 0 0 1024.4 1024.3 0.0
21/01:45am 12.9 13.7 12.5 97 0.2 CALM 0 0 0 0 1024.3 1024.2 0.0
21/01:30am 12.9 13.7 12.5 97 0.2 CALM 0 0 0 0 1024.6 1024.5 0.0
21/01:18am 12.4 13.2 12.4 100 0.0 CALM 0 0 0 0 1024.7 1024.6 0.0
21/01:00am 13.6 14.5 12.9 95 0.4 CALM 0 0 0 0 1024.6 1024.5 0.0
21/12:30am 14.4 15.4 13.3 93 0.6 CALM 0 0 0 0 1025.0 1024.9 0.0
21/12:00am 13.9 12.6 12.6 92 0.7 SSW 11 13 6 7 1025.3 1025.2 0.0
 
Date/Time
EST
Temp
°C
App
Temp
°C
Dew
Point
°C
Rel
Hum
%
Delta-T
°C
Wind Press
QNH
hPa
Press
MSL
hPa
Rain since
9am
mm
Dir  Spd
km/h
Gust
km/h
Spd
kts
Gust
kts
20/11:30pm 15.7 15.2 13.9 89 1.0 SW 9 11 5 6 1025.3 1025.2 0.0
20/11:00pm 16.0 17.3 14.1 88 1.1 CALM 0 0 0 0 1025.4 1025.3 0.0
20/10:30pm 16.4 16.0 14.1 86 1.3 SW 9 11 5 6 1025.9 1025.8 0.0
20/10:00pm 17.3 16.4 13.8 80 2.0 SSW 11 13 6 7 1025.7 1025.6 0.0
20/09:30pm 17.4 16.7 13.3 77 2.3 S 9 11 5 6 1025.8 1025.7 0.0
20/09:00pm 19.0 18.2 13.9 72 2.9 SE 11 15 6 8 1025.7 1025.6 0.0
20/08:30pm 19.5 18.8 14.3 72 3.0 SE 11 13 6 7 1025.8 1025.7 0.0
20/08:00pm 20.2 19.0 14.1 68 3.5 ESE 13 17 7 9 1025.6 1025.5 0.0
20/07:30pm 20.3 19.2 14.2 68 3.5 SE 13 17 7 9 1025.6 1025.5 0.0
20/07:00pm 20.7 19.0 13.7 64 4.0 ESE 15 20 8 11 1025.3 1025.2 0.0
20/06:30pm 20.9 18.3 13.8 64 4.1 ESE 20 28 11 15 1025.2 1025.1 0.0
20/06:00pm 20.9 18.5 13.8 64 4.1 E 19 30 10 16 1024.8 1024.7 0.0
20/05:30pm 21.6 17.9 13.8 61 4.5 E 26 32 14 17 1024.5 1024.4 0.0
20/05:00pm 22.0 19.5 14.1 61 4.6 E 20 30 11 16 1024.0 1023.9 0.0
20/04:30pm 23.1 20.6 13.6 55 5.5 E 19 26 10 14 1023.8 1023.7 0.0
20/04:00pm 23.8 20.4 13.7 53 5.9 ESE 24 30 13 16 1023.5 1023.4 0.0

Other Formats:

Comma delimited format used in spreadsheet applications
http://www.bom.gov.au/fwo/IDQ60801/IDQ60801.94568.axf

JavaScript Object Notation format (JSON) in row-major order
http://www.bom.gov.au/fwo/IDQ60801/IDQ60801.94568.json